LST weather

Launceston Airport
Launceston, Tasmania, Australia

Public forecast

Using degrees Celsius for public forecast. Weather courtesy of forecast.io.

METAR (pilot weather report)

Retrieved 2017/07/22 18:30 UTC (0 seconds ago):

YMLT 221830Z AUTO 34017KT 9999 -SHRA SCT022 SCT036 BKN049 10/08 Q1001

TAF (pilot weather forecast)

Retrieved 2017/07/22 18:36 UTC (0 seconds ago):

TAF YMLT 221710Z 2218/2318 33018G30KT 9999 -RA SCT010 BKN020 FM222100 30014KT 9999 -SHRA FEW015 SCT025 TEMPO 2218/2221 3000 RA BKN010 PROB30 INTER 2218/2221 33025G45KT 2000 TSRA BKN010 SCT030CB